createdAt,value
2023-03-28T00:04:41.453Z,-3.67
2023-03-28T00:09:43.446Z,-3.67
2023-03-28T00:14:46.397Z,-3.62
2023-03-28T00:19:49.993Z,-3.56
2023-03-28T00:24:53.896Z,-3.54
2023-03-28T00:29:55.707Z,-3.55
2023-03-28T00:34:57.895Z,-3.56
2023-03-28T00:39:59.636Z,-3.63
2023-03-28T00:45:01.911Z,-3.64
2023-03-28T00:50:07.155Z,-3.57
2023-03-28T00:55:15.662Z,-3.37
2023-03-28T01:00:19.087Z,-3.17
2023-03-28T01:05:31.934Z,-3.07
2023-03-28T01:10:34.563Z,-3.11
2023-03-28T01:15:38.056Z,-3.27
2023-03-28T01:20:55.217Z,-3.46
2023-03-28T01:26:17.368Z,-3.57
2023-03-28T01:31:38.168Z,-3.62
2023-03-28T01:37:41.075Z,-3.59
2023-03-28T01:43:02.988Z,-3.58
2023-03-28T01:48:22.025Z,-3.60
2023-03-28T01:53:43.126Z,-3.63
2023-03-28T01:58:51.859Z,-3.64
2023-03-28T02:04:03.091Z,-3.49
2023-03-28T02:09:16.609Z,-3.21
2023-03-28T02:14:43.963Z,-2.94
2023-03-28T02:20:11.748Z,-2.85
2023-03-28T02:25:32.482Z,-2.86
2023-03-28T02:30:59.082Z,-2.89
2023-03-28T02:36:07.255Z,-2.92
2023-03-28T02:41:32.005Z,-2.97
2023-03-28T02:46:46.555Z,-3.05
2023-03-28T02:51:58.639Z,-3.11
2023-03-28T02:57:13.316Z,-3.16
2023-03-28T03:02:21.565Z,-3.15
2023-03-28T03:07:25.004Z,-3.02
2023-03-28T03:12:26.963Z,-2.86
2023-03-28T03:17:31.685Z,-2.68
2023-03-28T03:22:34.694Z,-2.45
2023-03-28T03:27:37.547Z,-2.25
2023-03-28T03:32:41.350Z,-2.12
2023-03-28T03:37:43.590Z,-2.03
2023-03-28T03:42:45.405Z,-1.97
2023-03-28T03:47:47.200Z,-1.98
2023-03-28T03:52:49.009Z,-1.96
2023-03-28T03:57:51.182Z,-1.87
2023-03-28T04:06:20.630Z,-1.66
2023-03-28T04:11:23.066Z,-1.62
2023-03-28T04:16:26.276Z,-1.57
2023-03-28T04:21:42.849Z,-1.51
2023-03-28T04:26:45.929Z,-1.44
2023-03-28T04:31:51.081Z,-1.38
2023-03-28T04:36:52.925Z,-1.33
2023-03-28T04:41:55.756Z,-1.29
2023-03-28T04:46:58.409Z,-1.26
2023-03-28T04:52:01.217Z,-1.23
2023-03-28T04:57:04.803Z,-1.23
2023-03-28T05:02:18.033Z,-1.23
2023-03-28T05:07:27.231Z,-1.05
2023-03-28T05:12:29.791Z,-0.81
2023-03-28T05:17:37.242Z,-0.66
2023-03-28T05:22:51.044Z,-0.54
2023-03-28T05:27:53.072Z,-0.52
2023-03-28T05:32:54.887Z,-0.41
2023-03-28T05:37:56.815Z,-0.29
2023-03-28T05:42:58.802Z,-0.17
2023-03-28T05:48:00.878Z,-0.14
2023-03-28T05:53:04.236Z,-0.04
2023-03-28T05:58:06.423Z,0.17
2023-03-28T06:03:16.533Z,0.12
2023-03-28T06:08:19.711Z,0.10
2023-03-28T06:13:21.758Z,0.12
2023-03-28T06:18:23.798Z,0.21
2023-03-28T06:23:25.866Z,0.42
2023-03-28T06:28:28.101Z,0.60
2023-03-28T06:33:41.597Z,0.18
2023-03-28T06:38:45.855Z,-0.42
2023-03-28T06:43:47.789Z,-0.95
2023-03-28T06:49:25.431Z,-1.10
2023-03-28T06:54:49.984Z,-0.95
2023-03-28T06:59:52.697Z,-0.70
2023-03-28T07:04:59.450Z,-0.45
2023-03-28T07:10:01.390Z,-0.26
2023-03-28T07:15:06.046Z,-0.13
2023-03-28T07:20:08.720Z,0.23
2023-03-28T07:25:11.108Z,0.38
2023-03-28T07:30:14.326Z,0.43
2023-03-28T07:35:16.364Z,0.58
2023-03-28T07:40:22.173Z,0.90
2023-03-28T07:45:23.959Z,1.28
2023-03-28T07:50:27.141Z,1.66
2023-03-28T07:55:30.060Z,1.26
2023-03-28T08:00:34.562Z,0.73
2023-03-28T08:06:20.022Z,0.93
2023-03-28T08:11:31.227Z,1.21
2023-03-28T08:16:33.698Z,0.95
2023-03-28T08:21:36.590Z,0.82
2023-03-28T08:26:39.234Z,0.77
2023-03-28T08:31:42.594Z,1.03
2023-03-28T08:36:47.495Z,1.34
2023-03-28T08:42:20.263Z,1.67
2023-03-28T08:47:29.197Z,2.13
2023-03-28T08:52:31.856Z,2.06
2023-03-28T08:57:36.185Z,1.31
2023-03-28T09:02:38.116Z,0.86
2023-03-28T09:08:00.351Z,1.33
2023-03-28T09:13:24.510Z,1.51
2023-03-28T09:19:00.556Z,1.56
2023-03-28T09:24:21.062Z,1.58
2023-03-28T09:29:45.755Z,2.11
2023-03-28T09:34:51.195Z,2.29
2023-03-28T09:39:56.499Z,2.09
2023-03-28T09:45:30.483Z,1.85
2023-03-28T09:50:32.386Z,1.70
2023-03-28T09:55:35.678Z,1.72
2023-03-28T10:00:44.124Z,1.66
2023-03-28T10:06:27.755Z,1.31
2023-03-28T10:11:29.613Z,1.21
2023-03-28T10:16:32.288Z,1.76
2023-03-28T10:21:34.144Z,2.59
2023-03-28T10:26:43.529Z,2.55
2023-03-28T10:31:50.156Z,2.24
2023-03-28T10:37:02.644Z,1.94
2023-03-28T10:42:18.983Z,2.29
2023-03-28T10:47:30.350Z,2.67
2023-03-28T10:52:49.605Z,2.98
2023-03-28T10:58:03.361Z,3.14
2023-03-28T11:03:20.397Z,3.54
2023-03-28T11:08:46.254Z,1.98
2023-03-28T11:14:04.090Z,0.69
2023-03-28T11:19:38.476Z,-0.02
2023-03-28T11:24:57.172Z,0.41
2023-03-28T11:30:24.234Z,1.04
2023-03-28T11:35:46.438Z,1.33
2023-03-28T11:41:13.312Z,1.79
2023-03-28T11:46:35.215Z,2.49
2023-03-28T11:51:45.822Z,1.89
2023-03-28T11:57:04.569Z,1.34
2023-03-28T12:02:55.248Z,0.35
2023-03-28T12:08:05.577Z,-0.19
2023-03-28T12:13:27.072Z,0.01
2023-03-28T12:18:38.927Z,0.17
2023-03-28T12:24:04.223Z,0.42
2023-03-28T12:29:21.755Z,0.90
2023-03-28T12:34:38.425Z,1.10
2023-03-28T12:40:39.254Z,1.31
2023-03-28T12:45:47.569Z,1.74
2023-03-28T12:50:56.403Z,2.00
2023-03-28T12:55:58.754Z,2.31
2023-03-28T13:01:07.399Z,2.22
2023-03-28T13:06:30.683Z,2.46
2023-03-28T13:11:54.729Z,3.04
2023-03-28T13:16:59.171Z,3.37
2023-03-28T13:22:01.047Z,3.43
2023-03-28T13:27:30.418Z,3.30
2023-03-28T13:32:42.024Z,3.76
2023-03-28T13:37:43.661Z,3.38
2023-03-28T13:42:57.000Z,2.65
2023-03-28T13:48:12.065Z,1.05
2023-03-28T13:53:15.417Z,0.18
2023-03-28T13:58:19.008Z,0.23
2023-03-28T14:03:21.288Z,0.66
2023-03-28T14:08:25.622Z,1.43
2023-03-28T14:13:30.605Z,1.96
2023-03-28T14:18:48.028Z,2.01
2023-03-28T14:23:59.445Z,1.57
2023-03-28T14:29:07.638Z,1.39
2023-03-28T14:34:15.141Z,0.81
2023-03-28T14:39:18.368Z,0.44
2023-03-28T14:44:21.058Z,0.69
2023-03-28T14:49:25.207Z,0.88
2023-03-28T14:54:38.843Z,0.56
2023-03-28T14:59:45.054Z,-0.10
2023-03-28T15:04:47.464Z,-0.20
2023-03-28T15:10:07.557Z,0.32
2023-03-28T15:15:29.196Z,0.33
2023-03-28T15:20:34.839Z,0.08
2023-03-28T15:25:36.926Z,0.37
2023-03-28T15:30:44.041Z,1.08
2023-03-28T15:35:47.032Z,1.65
2023-03-28T15:40:50.955Z,1.95
2023-03-28T15:46:14.060Z,1.92
2023-03-28T15:51:18.882Z,2.02
2023-03-28T15:56:37.126Z,2.29
2023-03-28T16:01:38.950Z,2.13
2023-03-28T16:06:44.697Z,1.70
2023-03-28T16:11:49.615Z,0.93
2023-03-28T16:17:25.150Z,0.37
2023-03-28T16:22:35.846Z,0.17
2023-03-28T16:27:38.632Z,0.02
2023-03-28T16:32:40.429Z,-0.14
2023-03-28T16:37:42.204Z,-0.21
2023-03-28T16:42:44.375Z,-0.29
2023-03-28T16:47:47.384Z,-0.35
2023-03-28T16:52:56.169Z,-0.36
2023-03-28T16:57:57.908Z,-0.44
2023-03-28T17:03:07.978Z,-0.51
2023-03-28T17:08:09.883Z,-0.54
2023-03-28T17:13:11.649Z,-0.54
2023-03-28T17:18:13.465Z,-0.44
2023-03-28T17:23:15.253Z,-0.40
2023-03-28T17:28:17.070Z,-0.40
2023-03-28T17:33:19.567Z,-0.43
2023-03-28T17:38:21.738Z,-0.49
2023-03-28T17:43:23.486Z,-0.54
2023-03-28T17:48:25.205Z,-0.59
2023-03-28T17:53:26.970Z,-0.63
2023-03-28T17:58:28.811Z,-0.66
2023-03-28T18:03:31.016Z,-0.66
2023-03-28T18:08:59.070Z,-0.68
2023-03-28T18:14:01.137Z,-0.71
2023-03-28T18:19:03.496Z,-0.77
2023-03-28T18:24:05.627Z,-0.80
2023-03-28T18:29:07.905Z,-0.85
2023-03-28T18:34:09.613Z,-0.93
2023-03-28T18:39:12.549Z,-1.05
2023-03-28T18:44:14.956Z,-1.15
2023-03-28T18:49:16.748Z,-1.21
2023-03-28T18:54:18.699Z,-1.30
2023-03-28T18:59:20.959Z,-1.40
2023-03-28T19:04:24.085Z,-1.48
2023-03-28T19:09:26.377Z,-1.53
2023-03-28T19:14:28.440Z,-1.61
2023-03-28T19:19:30.467Z,-1.68
2023-03-28T19:24:33.803Z,-1.72
2023-03-28T19:29:35.791Z,-1.76
2023-03-28T19:34:37.501Z,-1.80
2023-03-28T19:39:39.168Z,-1.85
2023-03-28T19:44:40.815Z,-1.94
2023-03-28T19:49:42.935Z,-2.06
2023-03-28T19:54:44.624Z,-2.15
2023-03-28T19:59:47.706Z,-2.25
2023-03-28T20:04:49.507Z,-2.37
2023-03-28T20:09:51.224Z,-2.44
2023-03-28T20:14:54.436Z,-2.51
2023-03-28T20:19:58.354Z,-2.57
2023-03-28T20:25:00.561Z,-2.62
2023-03-28T20:30:03.598Z,-2.64
2023-03-28T20:35:06.777Z,-2.66
2023-03-28T20:40:11.967Z,-2.65
2023-03-28T20:45:22.159Z,-2.64
2023-03-28T20:50:26.515Z,-2.69
2023-03-28T20:55:32.118Z,-2.76
2023-03-28T21:00:35.831Z,-2.78
2023-03-28T21:05:44.926Z,-2.85
2023-03-28T21:10:53.514Z,-2.88
2023-03-28T21:15:59.159Z,-2.82
2023-03-28T21:21:01.350Z,-2.82
2023-03-28T21:26:08.748Z,-2.91
2023-03-28T21:31:17.003Z,-2.92
2023-03-28T21:36:19.718Z,-3.09
2023-03-28T21:41:23.930Z,-3.31
2023-03-28T21:46:27.285Z,-3.44
2023-03-28T21:51:31.752Z,-3.68
2023-03-28T21:56:42.307Z,-3.96
2023-03-28T22:01:44.085Z,-4.23
2023-03-28T22:06:45.892Z,-4.52
2023-03-28T22:11:48.429Z,-4.74
2023-03-28T22:16:50.601Z,-4.99
2023-03-28T22:21:52.451Z,-5.25
2023-03-28T22:26:54.522Z,-5.24
2023-03-28T22:31:56.932Z,-5.43
2023-03-28T22:36:58.678Z,-5.61
2023-03-28T22:42:00.705Z,-5.66
2023-03-28T22:47:03.198Z,-5.71
2023-03-28T22:52:06.273Z,-5.78
2023-03-28T22:57:08.397Z,-5.90
2023-03-28T23:02:11.444Z,-5.99
2023-03-28T23:07:16.423Z,-6.12
2023-03-28T23:12:38.647Z,-6.30
2023-03-28T23:17:42.938Z,-6.44
2023-03-28T23:22:47.449Z,-6.51
2023-03-28T23:27:49.200Z,-6.52
2023-03-28T23:32:52.436Z,-6.35
2023-03-28T23:37:54.233Z,-6.29
2023-03-28T23:43:03.698Z,-6.28
2023-03-28T23:48:07.314Z,-6.24
2023-03-28T23:53:16.275Z,-6.30
2023-03-28T23:58:17.953Z,-6.46
